Aviation Digital Data Service (ADDS)

Output produced by METARs form (2314 UTC 30 January 2015)
found at http://www.aviationweather.gov/adds/metars/
 
KIPT 302254Z 31016G26KT 9SM FEW048 M06/M15 A3016 RMK AO2 PK WND 29026/2251 SLP220 T10611150
KIPT 302154Z 31011G22KT 10SM BKN044 OVC055 M04/M13 A3011 RMK AO2 SLP203 T10391133
KIPT 302054Z 31016G26KT 9SM OVC046 M03/M11 A3006 RMK AO2 PK WND 31026/2054 SLP187 60000 T10281111 53032
KIPT 301954Z 30018KT 10SM BKN050 M01/M11 A3001 RMK AO2 PK WND 29031/1917 UPB26E28SNE01B17E26B28E29 SLP170 P0000 T10061106
KIPT 301854Z 28012KT 9SM -SN BKN037 BKN043 OVC100 M01/M04 A2998 RMK AO2 SNB01E26B29 SLP158 P0000 T10061044
KIPT 301754Z 33011KT 10SM BKN032 BKN044 OVC050 01/M07 A2997 RMK AO2 SNB02E26 SLP154 P0000 60000 T00061072 10011 21011 58001
KIPT 301737Z 29011G19KT 10SM FEW022 BKN049 OVC075 00/M06 A2997 RMK AO2 SNB02E26 P0000 T00001061
KIPT 301728Z 26010KT 9SM BKN027 BKN034 OVC075 00/M05 A2998 RMK AO2 SNB02E26 P0000 T00001050
KIPT 301654Z 27011KT 10SM FEW030 BKN036 OVC045 00/M05 A2998 RMK AO2 SLP159 T00001050
KIPT 301554Z 29013G19KT 10SM FEW038 BKN060 OVC085 01/M06 A2999 RMK AO2 SLP160 T00111061
KIPT 301454Z 30010KT 10SM FEW035 OVC080 00/M06 A2997 RMK AO2 SLP155 T00001061 51023
KIPT 301354Z 28009KT 10SM FEW035 OVC080 M01/M06 A2995 RMK AO2 SLP150 T10061061
KIPT 301254Z 31008KT 10SM OVC040 M01/M05 A2993 RMK AO2 SLP143 T10061050
KIPT 301154Z 29007KT 10SM BKN033 BKN039 OVC070 M01/M04 A2990 RMK AO2 SNE00 SLP133 P0000 60006 70012 T10111039 11011 21028 53005
KIPT 301058Z AUTO 31003KT 4SM -SN BR FEW006 SCT015 OVC031 M02/M04 A2989 RMK AO2 P0000 T10221039
KIPT 301054Z AUTO 30003KT 4SM -SN BR SCT006 BKN013 OVC031 M02/M04 A2989 RMK AO2 SLP127 P0004 T10221039
KIPT 301047Z AUTO 31003KT 3SM -SN BR SCT006 BKN013 OVC029 M03/M04 A2988 RMK AO2 P0004 T10281039
KIPT 301041Z AUTO 00000KT 1 1/4SM -SN BR FEW006 BKN013 OVC029 M03/M04 A2989 RMK AO2 P0004 T10281039
KIPT 301018Z AUTO 27005KT 3/4SM -SN BR VV011 M03/M04 A2988 RMK AO2 P0002 T10281044
KIPT 301004Z AUTO 28006KT 1SM -SN BR VV014 M03/M04 A2988 RMK AO2 P0001 T10281044
KIPT 300954Z AUTO 27006KT 1SM -SN BR FEW008 OVC016 M03/M04 A2988 RMK AO2 SLP125 P0001 T10281044
KIPT 300940Z AUTO 27005KT 1 3/4SM -SN BR SCT009 OVC026 M03/M04 A2989 RMK AO2 P0000 T10281044
KIPT 300932Z AUTO 28006KT 2 1/2SM -SN BR BKN010 OVC036 M03/M04 A2988 RMK AO2 P0000 T10281044
KIPT 300854Z AUTO 27004KT 4SM -SN BR OVC010 M03/M05 A2989 RMK AO2 CIG 007V011 SLP128 P0001 60001 T10281050 51004
KIPT 300803Z AUTO 00000KT 4SM -SN BR BKN008 OVC016 M03/M04 A2989 RMK AO2 P0000 T10281044
KIPT 300754Z AUTO 00000KT 4SM -SN BR SCT008 OVC016 M03/M04 A2989 RMK AO2 UPB01E16SNB12E14B16E22B38 SLP127 P0000 T10281044
KIPT 300654Z AUTO 00000KT 7SM BKN018 OVC026 M03/M04 A2988 RMK AO2 SNE02 SLP126 P0000 T10281044
KIPT 300554Z AUTO 12005KT 5SM -SN OVC013 M02/M05 A2988 RMK AO2 SNE0457B47 SLP124 P0000 60001 T10221050 11022 21033 56012
KIPT 300545Z AUTO 10005KT 8SM BKN013 OVC023 M02/M05 A2988 RMK AO2 SNE0457 P0000 T10221050
KIPT 300523Z AUTO 07006KT 10SM BKN015 OVC025 M02/M06 A2987 RMK AO2 SNE0457 P0000 T10221056
KIPT 300454Z AUTO 02003KT 7SM -SN OVC014 M02/M06 A2988 RMK AO2 SLP125 P0000 T10221056 410171167
KIPT 300354Z AUTO 04007KT 5SM -SN OVC012 M02/M06 A2990 RMK AO2 UPB26E36SNE23B37 SLP131 P0000 T10221056
KIPT 300254Z 08007G17KT 4SM -SN OVC010 M03/M06 A2991 RMK AO2 CIG 008V013 SLP137 P0000 60001 T10281056 58010
KIPT 300154Z 07009G17KT 4SM -SN OVC011 M03/M06 A2992 RMK AO2 SLP142 P0001 T10281056
KIPT 300101Z 09008G17KT 060V170 6SM -SN OVC012 M03/M07 A2994 RMK AO2 P0000 T10331067
KIPT 300054Z 09007G17KT 030V140 2 1/2SM -SN OVC012 M03/M07 A2995 RMK AO2 SLP151 P0000 T10331067
KIPT 300051Z 05008G18KT 2SM -SN OVC012 M03/M07 A2994 RMK AO2 P0000
KIPT 300005Z 11007G20KT 050V140 8SM -SN OVC014 M03/M07 A2996 RMK AO2 P0000 T10331067
KIPT 292354Z 10012G25KT 060V130 8SM -SN OVC015 M03/M07 A2996 RMK AO2 PK WND 15034/2321 SLP156 P0000 60005 T10331067 11017 21039 56013
KIPT 292322Z 18015G34KT 100V290 7SM -SN BKN018 OVC039 M03/M07 A2997 RMK AO2 PK WND 15034/2321 P0000 T10331072
KIPT 292254Z 13010G24KT 090V170 9SM -SN SCT016 OVC039 M03/M07 A2998 RMK AO2 UPB51E54SNE51B54 SLP162 P0003 T10331072
KIPT 292243Z 15015G24KT 130V190 3SM -SN BKN018 OVC039 M03/M07 A2998 RMK AO2 P0003 T10331072
KIPT 292154Z 16010G20KT 120V190 1SM -SN VV017 M04/M08 A2998 RMK AO2 SNB2058 SLP160 P0002 T10391078
KIPT 292127Z 10010G15KT 3/4SM -SN VV018 M03/M09 A2998 RMK AO2 SNB2058 P0000 T10331089
KIPT 292108Z 12010G19KT 090V170 2SM -SN OVC029 M02/M13 A2999 RMK AO2 SNB2058 P0000 T10221128
KIPT 292054Z 10010G20KT 040V140 10SM BKN039 OVC070 M02/M15 A3000 RMK AO2 SLP168 T10171150 56031
KIPT 291954Z VRB04KT 10SM OVC065 M03/M14 A3003 RMK AO2 SLP177 T10331144
KIPT 291854Z 12012G19KT 10SM OVC080 M04/M16 A3005 RMK AO2 SLP184 T10391156
KIPT 291754Z 05006KT 10SM OVC080 M04/M15 A3010 RMK AO2 SLP200 T10391150 11039 21156 58052
KIPT 291654Z 10006KT 10SM OVC090 M08/M14 A3015 RMK AO2 SLP219 T10781139
KIPT 291554Z 14004KT 10SM BKN100 M10/M16 A3021 RMK AO2 SLP239 T11001156
KIPT 291454Z 09003KT 10SM OVC100 M12/M17 A3025 RMK AO2 SLP254 T11171167 56019
KIPT 291354Z 26003KT 10SM SCT100 M13/M18 A3028 RMK AO2 SLP265 T11331178
KIPT 291254Z 00000KT 10SM CLR M15/M18 A3027 RMK AO2 SLP261 T11501178
KIPT 291154Z 00000KT 10SM CLR M16/M19 A3031 RMK AO2 SLP273 T11611189 11117 21167 56011